Aérodrome :
LOGIN :

S'inscrire | Disclaimer

   EN    FR    IT 

 










Légende :    VFR   VFR Marginal   IFR   IFR Intensif   IFR Très Intensif
Visi : 
Plafond : 
>= 8 km
>= 3000ft
5 à 8 km
1000 à 3000 ft
1500m à 5 km
500 à 1000 ft
800 à 1500m
200 à 500 ft
< 800m
< 200 ft
Symboles :   Orages  Brouillard  Fortes neiges  Fortes précipitations  Vent > 20 kt
SIGMETs :   Divers  Orages  Givrage  Turbulence  Onde Orograph.  Cendres Volcan.






- Altitude de l'aérodrome : 288 ft
- Code IATA : BZZ


EGVN - RAF Brize Norton

DERNIER METAR :
  • 041620Z 23006KT 9999 FEW035 BKN140 05/00 Q0977 NOSIG

METARs EXPIRÉS :
  • 041550Z 23006KT 9999 FEW024 SCT060 BKN140 05/01 Q0977 NOSIG RMK BLU BLU
  • 041522Z 24007KT 9999 FEW040 SCT060 BKN120 05/01 Q0977 NOSIG
  • 041450Z 24009G19KT 9999 FEW040 SCT060 OVC120 06/00 Q0976 NOSIG RMK BLU BLU
  • 041420Z 24008G18KT 9999 FEW012 BKN040 BKN120 06/00 Q0976 NOSIG RMK BLU BLU
  • 041350Z 24009KT 9999 BKN045 BKN120 06/01 Q0976 NOSIG RMK BLU BLU

TAF TAF EGVN
Valide du 04 à 15h jusqu'au 05 à 15h UTC


041328Z 0415/0515 24008KT 9999 BKN045
PROB30
TEMPO 0415/0417 BKN024
PROB40 0419/0510 BKN010
PROB30
TEMPO 0419/0509 4000 RADZ



MET'MAP, la Météo Aéronautique d'un coup d'oeil ! - Copyright ORBIFLY Décembre 2007 - Disclaimer

ORBIFLY MET'MAP TEAM :

Programmation & Développement : Alexandra Zaïnal
Sur une idée originale de : Baudouin d'Aumeries
Assistance à la programmation : Marc-Olivier Méhu
Soutien technique & logistique : Manuel Goepfert

Contact : metmap@orbifly.com




SOURCES & CREDITS :

   NOAA